sensor_id;sensor_type;location;lat;lon;timestamp;pressure;altitude;pressure_sealevel;temperature;humidity
6853;BME280;3465;42.144;24.722;2023-03-07T00:01:02;144690.97;;;7.08;100.00
6853;BME280;3465;42.144;24.722;2023-03-07T00:03:27;144690.97;;;7.08;100.00
6853;BME280;3465;42.144;24.722;2023-03-07T00:06:05;144681.00;;;7.04;100.00
6853;BME280;3465;42.144;24.722;2023-03-07T00:08:31;144661.03;;;6.96;100.00
6853;BME280;3465;42.144;24.722;2023-03-07T00:11:02;144643.53;;;6.89;100.00
6853;BME280;3465;42.144;24.722;2023-03-07T00:13:29;144644.78;;;6.90;100.00
6853;BME280;3465;42.144;24.722;2023-03-07T00:16:05;144602.34;;;6.73;100.00
6853;BME280;3465;42.144;24.722;2023-03-07T00:18:31;144618.56;;;6.79;100.00
6853;BME280;3465;42.144;24.722;2023-03-07T00:21:01;144574.88;;;6.62;100.00
6853;BME280;3465;42.144;24.722;2023-03-07T00:23:27;144571.16;;;6.60;100.00
6853;BME280;3465;42.144;24.722;2023-03-07T00:25:57;144572.41;;;6.61;100.00
6853;BME280;3465;42.144;24.722;2023-03-07T00:28:22;144563.66;;;6.57;100.00
6853;BME280;3465;42.144;24.722;2023-03-07T00:30:48;144568.66;;;6.59;100.00
6853;BME280;3465;42.144;24.722;2023-03-07T00:33:13;144543.69;;;6.49;100.00
6853;BME280;3465;42.144;24.722;2023-03-07T00:35:39;144517.53;;;6.39;100.00
6853;BME280;3465;42.144;24.722;2023-03-07T00:38:04;144493.81;;;6.29;100.00
6853;BME280;3465;42.144;24.722;2023-03-07T00:40:29;144482.56;;;6.25;100.00
6853;BME280;3465;42.144;24.722;2023-03-07T00:42:55;144440.16;;;6.08;100.00
6853;BME280;3465;42.144;24.722;2023-03-07T00:45:20;144460.13;;;6.16;100.00
6853;BME280;3465;42.144;24.722;2023-03-07T00:47:45;144452.66;;;6.13;100.00
6853;BME280;3465;42.144;24.722;2023-03-07T00:50:11;144463.84;;;6.17;100.00
6853;BME280;3465;42.144;24.722;2023-03-07T00:52:36;144448.91;;;6.11;100.00
6853;BME280;3465;42.144;24.722;2023-03-07T00:55:02;144451.38;;;6.12;100.00
6853;BME280;3465;42.144;24.722;2023-03-07T00:57:27;144453.91;;;6.13;100.00
6853;BME280;3465;42.144;24.722;2023-03-07T00:59:52;144451.38;;;6.12;100.00
6853;BME280;3465;42.144;24.722;2023-03-07T01:02:18;144431.41;;;6.04;100.00
6853;BME280;3465;42.144;24.722;2023-03-07T01:04:43;144442.63;;;6.09;100.00
6853;BME280;3465;42.144;24.722;2023-03-07T01:07:09;144425.22;;;6.02;100.00
6853;BME280;3465;42.144;24.722;2023-03-07T01:09:34;144421.47;;;6.00;100.00
6853;BME280;3465;42.144;24.722;2023-03-07T01:11:59;144411.47;;;5.96;100.00
6853;BME280;3465;42.144;24.722;2023-03-07T01:14:25;144400.25;;;5.92;100.00
6853;BME280;3465;42.144;24.722;2023-03-07T01:16:50;144394.03;;;5.89;100.00
6853;BME280;3465;42.144;24.722;2023-03-07T01:19:16;144427.69;;;6.03;100.00
6853;BME280;3465;42.144;24.722;2023-03-07T01:21:42;144404.00;;;5.93;100.00
6853;BME280;3465;42.144;24.722;2023-03-07T01:24:13;144392.78;;;5.89;100.00
6853;BME280;3465;42.144;24.722;2023-03-07T01:26:39;144390.31;;;5.88;100.00
6853;BME280;3465;42.144;24.722;2023-03-07T01:29:06;144375.25;;;5.81;100.00
6853;BME280;3465;42.144;24.722;2023-03-07T01:31:31;144370.31;;;5.79;100.00
6853;BME280;3465;42.144;24.722;2023-03-07T01:33:57;144377.81;;;5.82;100.00
6853;BME280;3465;42.144;24.722;2023-03-07T01:36:25;144364.03;;;5.77;100.00
6853;BME280;3465;42.144;24.722;2023-03-07T01:38:59;144341.63;;;5.68;100.00
6853;BME280;3465;42.144;24.722;2023-03-07T01:41:27;144314.19;;;5.57;100.00
6853;BME280;3465;42.144;24.722;2023-03-07T01:43:56;144307.94;;;5.54;100.00
6853;BME280;3465;42.144;24.722;2023-03-07T01:46:41;144269.31;;;5.39;100.00
6853;BME280;3465;42.144;24.722;2023-03-07T01:49:55;144283.00;;;5.44;100.00
6853;BME280;3465;42.144;24.722;2023-03-07T01:52:09;144236.91;;;5.26;100.00
6853;BME280;3465;42.144;24.722;2023-03-07T01:54:42;144213.22;;;5.16;100.00
6853;BME280;3465;42.144;24.722;2023-03-07T01:57:13;144145.94;;;4.89;100.00
6853;BME280;3465;42.144;24.722;2023-03-07T01:59:43;144154.69;;;4.93;100.00
6853;BME280;3465;42.144;24.722;2023-03-07T02:02:13;144152.16;;;4.92;100.00
6853;BME280;3465;42.144;24.722;2023-03-07T02:07:24;144172.09;;;5.00;100.00
6853;BME280;3465;42.144;24.722;2023-03-07T02:09:52;144157.16;;;4.94;100.00
6853;BME280;3465;42.144;24.722;2023-03-07T02:12:18;144142.22;;;4.88;100.00
6853;BME280;3465;42.144;24.722;2023-03-07T02:14:45;144123.50;;;4.80;100.00
6853;BME280;3465;42.144;24.722;2023-03-07T02:17:11;144102.34;;;4.72;100.00
6853;BME280;3465;42.144;24.722;2023-03-07T02:19:47;144128.50;;;4.82;100.00
6853;BME280;3465;42.144;24.722;2023-03-07T02:22:17;144145.94;;;4.89;100.00
6853;BME280;3465;42.144;24.722;2023-03-07T02:24:50;144129.75;;;4.83;100.00
6853;BME280;3465;42.144;24.722;2023-03-07T02:27:17;144096.09;;;4.69;100.00
6853;BME280;3465;42.144;24.722;2023-03-07T02:29:42;144109.81;;;4.75;100.00
6853;BME280;3465;42.144;24.722;2023-03-07T02:32:08;144139.69;;;4.87;100.00
6853;BME280;3465;42.144;24.722;2023-03-07T02:34:34;144159.63;;;4.95;100.00
6853;BME280;3465;42.144;24.722;2023-03-07T02:37:32;144157.16;;;4.94;100.00
6853;BME280;3465;42.144;24.722;2023-03-07T02:40:01;144147.22;;;4.90;100.00
6853;BME280;3465;42.144;24.722;2023-03-07T02:42:31;144077.44;;;4.62;100.00
6853;BME280;3465;42.144;24.722;2023-03-07T02:45:00;144131.00;;;4.83;100.00
6853;BME280;3465;42.144;24.722;2023-03-07T02:47:26;144133.47;;;4.84;100.00
6853;BME280;3465;42.144;24.722;2023-03-07T02:49:51;144132.22;;;4.84;100.00
6853;BME280;3465;42.144;24.722;2023-03-07T02:52:17;144114.81;;;4.77;100.00
6853;BME280;3465;42.144;24.722;2023-03-07T02:54:42;144119.75;;;4.79;100.00
6853;BME280;3465;42.144;24.722;2023-03-07T02:57:07;144092.34;;;4.68;100.00
6853;BME280;3465;42.144;24.722;2023-03-07T02:59:34;144093.63;;;4.68;100.00
6853;BME280;3465;42.144;24.722;2023-03-07T03:02:00;144087.41;;;4.66;100.00
6853;BME280;3465;42.144;24.722;2023-03-07T03:04:25;144092.34;;;4.68;100.00
6853;BME280;3465;42.144;24.722;2023-03-07T03:06:51;144078.69;;;4.62;100.00
6853;BME280;3465;42.144;24.722;2023-03-07T03:09:16;144040.03;;;4.47;100.00
6853;BME280;3465;42.144;24.722;2023-03-07T03:11:41;144086.16;;;4.65;100.00
6853;BME280;3465;42.144;24.722;2023-03-07T03:14:07;144073.69;;;4.60;100.00
6853;BME280;3465;42.144;24.722;2023-03-07T03:16:32;144073.69;;;4.60;100.00
6853;BME280;3465;42.144;24.722;2023-03-07T03:18:58;144064.97;;;4.57;100.00
6853;BME280;3465;42.144;24.722;2023-03-07T03:21:24;144023.84;;;4.40;100.00
6853;BME280;3465;42.144;24.722;2023-03-07T03:23:49;144000.19;;;4.30;100.00
6853;BME280;3465;42.144;24.722;2023-03-07T03:26:15;143980.28;;;4.22;100.00
6853;BME280;3465;42.144;24.722;2023-03-07T03:28:40;144000.19;;;4.30;100.00
6853;BME280;3465;42.144;24.722;2023-03-07T03:31:11;144001.44;;;4.31;100.00
6853;BME280;3465;42.144;24.722;2023-03-07T03:33:40;144008.91;;;4.34;100.00
6853;BME280;3465;42.144;24.722;2023-03-07T03:36:08;144016.38;;;4.37;100.00
6853;BME280;3465;42.144;24.722;2023-03-07T03:38:34;144017.66;;;4.37;100.00
6853;BME280;3465;42.144;24.722;2023-03-07T03:41:04;144025.13;;;4.40;100.00
6853;BME280;3465;42.144;24.722;2023-03-07T03:43:30;144010.19;;;4.34;100.00
6853;BME280;3465;42.144;24.722;2023-03-07T03:45:56;143971.59;;;4.19;100.00
6853;BME280;3465;42.144;24.722;2023-03-07T03:48:22;143986.53;;;4.25;100.00
6853;BME280;3465;42.144;24.722;2023-03-07T03:50:47;143998.97;;;4.30;100.00
6853;BME280;3465;42.144;24.722;2023-03-07T03:53:13;143995.25;;;4.28;100.00
6853;BME280;3465;42.144;24.722;2023-03-07T03:55:38;143987.78;;;4.25;100.00
6853;BME280;3465;42.144;24.722;2023-03-07T03:58:03;143975.31;;;4.20;100.00
6853;BME280;3465;42.144;24.722;2023-03-07T04:00:29;143942.97;;;4.07;100.00
6853;BME280;3465;42.144;24.722;2023-03-07T04:02:55;143935.50;;;4.04;100.00
6853;BME280;3465;42.144;24.722;2023-03-07T04:05:21;143946.69;;;4.09;100.00
6853;BME280;3465;42.144;24.722;2023-03-07T04:07:46;143974.06;;;4.20;100.00
6853;BME280;3465;42.144;24.722;2023-03-07T04:10:12;143964.09;;;4.16;100.00
6853;BME280;3465;42.144;24.722;2023-03-07T04:12:37;143960.34;;;4.14;100.00
6853;BME280;3465;42.144;24.722;2023-03-07T04:15:05;143937.97;;;4.05;100.00
6853;BME280;3465;42.144;24.722;2023-03-07T04:17:31;143937.97;;;4.05;100.00
6853;BME280;3465;42.144;24.722;2023-03-07T04:19:57;143932.97;;;4.03;100.00
6853;BME280;3465;42.144;24.722;2023-03-07T04:22:22;143888.19;;;3.85;100.00
6853;BME280;3465;42.144;24.722;2023-03-07T04:24:47;143949.16;;;4.10;100.00
6853;BME280;3465;42.144;24.722;2023-03-07T04:27:13;143949.16;;;4.10;100.00
6853;BME280;3465;42.144;24.722;2023-03-07T04:29:38;143918.03;;;3.97;100.00
6853;BME280;3465;42.144;24.722;2023-03-07T04:32:04;143876.97;;;3.81;100.00
6853;BME280;3465;42.144;24.722;2023-03-07T04:34:29;143806.03;;;3.52;100.00
6853;BME280;3465;42.144;24.722;2023-03-07T04:36:54;143903.13;;;3.91;100.00
6853;BME280;3465;42.144;24.722;2023-03-07T04:39:20;143911.84;;;3.95;100.00
6853;BME280;3465;42.144;24.722;2023-03-07T04:41:45;143904.34;;;3.92;100.00
6853;BME280;3465;42.144;24.722;2023-03-07T04:44:11;143875.75;;;3.80;100.00
6853;BME280;3465;42.144;24.722;2023-03-07T04:46:36;143911.84;;;3.95;100.00
6853;BME280;3465;42.144;24.722;2023-03-07T04:49:01;143913.06;;;3.95;100.00
6853;BME280;3465;42.144;24.722;2023-03-07T04:51:27;143918.03;;;3.97;100.00
6853;BME280;3465;42.144;24.722;2023-03-07T04:53:52;143908.09;;;3.93;100.00
6853;BME280;3465;42.144;24.722;2023-03-07T04:56:17;143898.13;;;3.89;100.00
6853;BME280;3465;42.144;24.722;2023-03-07T04:58:43;143883.22;;;3.83;100.00
6853;BME280;3465;42.144;24.722;2023-03-07T05:01:10;143919.31;;;3.98;100.00
6853;BME280;3465;42.144;24.722;2023-03-07T05:03:35;143906.84;;;3.93;100.00
6853;BME280;3465;42.144;24.722;2023-03-07T05:06:06;143896.88;;;3.89;100.00
6853;BME280;3465;42.144;24.722;2023-03-07T05:08:32;143899.38;;;3.90;100.00
6853;BME280;3465;42.144;24.722;2023-03-07T05:10:58;143908.09;;;3.93;100.00
6853;BME280;3465;42.144;24.722;2023-03-07T05:13:23;143929.25;;;4.02;100.00
6853;BME280;3465;42.144;24.722;2023-03-07T05:15:53;143939.22;;;4.06;100.00
6853;BME280;3465;42.144;24.722;2023-03-07T05:18:19;143971.59;;;4.19;100.00
6853;BME280;3465;42.144;24.722;2023-03-07T05:20:45;144021.38;;;4.39;100.00
6853;BME280;3465;42.144;24.722;2023-03-07T05:23:10;144091.16;;;4.67;100.00
6853;BME280;3465;42.144;24.722;2023-03-07T05:25:36;144147.22;;;4.90;100.00
6853;BME280;3465;42.144;24.722;2023-03-07T05:28:01;144199.50;;;5.11;100.00
6853;BME280;3465;42.144;24.722;2023-03-07T05:30:26;144258.09;;;5.34;100.00
6853;BME280;3465;42.144;24.722;2023-03-07T05:32:52;144306.72;;;5.54;100.00
6853;BME280;3465;42.144;24.722;2023-03-07T05:35:17;144304.19;;;5.53;100.00
6853;BME280;3465;42.144;24.722;2023-03-07T05:37:43;144362.78;;;5.76;100.00
6853;BME280;3465;42.144;24.722;2023-03-07T05:40:09;144379.03;;;5.83;100.00
6853;BME280;3465;42.144;24.722;2023-03-07T05:42:35;144431.41;;;6.04;100.00
6853;BME280;3465;42.144;24.722;2023-03-07T05:45:00;144446.44;;;6.10;100.00
6853;BME280;3465;42.144;24.722;2023-03-07T05:47:26;144453.91;;;6.13;100.00
6853;BME280;3465;42.144;24.722;2023-03-07T05:49:51;144492.56;;;6.29;100.00
6853;BME280;3465;42.144;24.722;2023-03-07T05:52:17;144488.81;;;6.27;100.00
6853;BME280;3465;42.144;24.722;2023-03-07T05:54:44;144476.34;;;6.22;100.00
6853;BME280;3465;42.144;24.722;2023-03-07T05:57:10;144483.81;;;6.25;100.00
6853;BME280;3465;42.144;24.722;2023-03-07T05:59:35;144483.81;;;6.25;100.00
6853;BME280;3465;42.144;24.722;2023-03-07T06:02:00;144471.34;;;6.20;100.00
6853;BME280;3465;42.144;24.722;2023-03-07T06:04:26;144488.81;;;6.27;100.00
6853;BME280;3465;42.144;24.722;2023-03-07T06:06:51;144523.75;;;6.41;100.00
6853;BME280;3465;42.144;24.722;2023-03-07T06:09:17;144586.16;;;6.66;100.00
6853;BME280;3465;42.144;24.722;2023-03-07T06:11:43;144568.66;;;6.59;100.00
6853;BME280;3465;42.144;24.722;2023-03-07T06:14:08;144564.94;;;6.58;100.00
6853;BME280;3465;42.144;24.722;2023-03-07T06:16:34;144559.91;;;6.56;100.00
6853;BME280;3465;42.144;24.722;2023-03-07T06:18:59;144517.53;;;6.39;100.00
6853;BME280;3465;42.144;24.722;2023-03-07T06:21:25;144578.63;;;6.63;100.00
6853;BME280;3465;42.144;24.722;2023-03-07T06:23:50;144674.72;;;7.02;100.00
6853;BME280;3465;42.144;24.722;2023-03-07T06:26:15;144775.88;;;7.43;100.00
6853;BME280;3465;42.144;24.722;2023-03-07T06:28:41;144972.00;;;8.21;100.00
6853;BME280;3465;42.144;24.722;2023-03-07T06:31:12;145185.84;;;9.07;100.00
6853;BME280;3465;42.144;24.722;2023-03-07T06:33:38;145382.22;;;9.86;100.00
6853;BME280;3465;42.144;24.722;2023-03-07T06:36:06;145661.53;;;10.98;95.52
6853;BME280;3465;42.144;24.722;2023-03-07T06:38:31;145968.63;;;12.21;88.30
6853;BME280;3465;42.144;24.722;2023-03-07T06:40:57;146248.50;;;13.33;83.73
6853;BME280;3465;42.144;24.722;2023-03-07T06:43:22;146557.53;;;14.56;78.29
6853;BME280;3465;42.144;24.722;2023-03-07T06:45:48;146861.81;;;15.77;70.82
6853;BME280;3465;42.144;24.722;2023-03-07T06:48:13;147166.41;;;16.99;65.33
6853;BME280;3465;42.144;24.722;2023-03-07T06:50:38;147221.84;;;17.21;61.77
6853;BME280;3465;42.144;24.722;2023-03-07T06:53:04;147380.59;;;17.84;59.68
6853;BME280;3465;42.144;24.722;2023-03-07T06:55:29;147458.75;;;18.15;57.84
6853;BME280;3465;42.144;24.722;2023-03-07T06:57:54;147506.63;;;18.34;57.20
6853;BME280;3465;42.144;24.722;2023-03-07T07:00:20;147499.06;;;18.31;57.10
6853;BME280;3465;42.144;24.722;2023-03-07T07:02:46;147287.34;;;17.47;58.08
6853;BME280;3465;42.144;24.722;2023-03-07T07:05:12;147446.13;;;18.10;57.08
6853;BME280;3465;42.144;24.722;2023-03-07T07:07:37;147473.84;;;18.21;56.50
6853;BME280;3465;42.144;24.722;2023-03-07T07:10:03;147514.19;;;18.37;55.78
6853;BME280;3465;42.144;24.722;2023-03-07T07:12:29;147809.41;;;19.55;52.66
6853;BME280;3465;42.144;24.722;2023-03-07T07:14:54;148036.66;;;20.45;49.09
6853;BME280;3465;42.144;24.722;2023-03-07T07:17:20;148266.59;;;21.37;45.87
6853;BME280;3465;42.144;24.722;2023-03-07T07:19:45;148403.13;;;21.91;42.77
6853;BME280;3465;42.144;24.722;2023-03-07T07:22:11;148548.50;;;22.48;41.25
6853;BME280;3465;42.144;24.722;2023-03-07T07:24:39;148360.09;;;21.74;41.29
6853;BME280;3465;42.144;24.722;2023-03-07T07:27:05;148446.13;;;22.08;40.99
6853;BME280;3465;42.144;24.722;2023-03-07T07:29:30;148446.13;;;22.08;40.69
6853;BME280;3465;42.144;24.722;2023-03-07T07:31:55;148425.91;;;22.00;40.19
6853;BME280;3465;42.144;24.722;2023-03-07T07:34:21;148663.69;;;22.94;39.44
6853;BME280;3465;42.144;24.722;2023-03-07T07:36:46;148785.22;;;23.42;37.89
6853;BME280;3465;42.144;24.722;2023-03-07T07:39:12;148805.47;;;23.50;37.29
6853;BME280;3465;42.144;24.722;2023-03-07T07:41:39;148929.53;;;23.99;36.85
6853;BME280;3465;42.144;24.722;2023-03-07T07:44:04;149106.88;;;24.70;35.33
6853;BME280;3465;42.144;24.722;2023-03-07T07:46:30;149125.91;;;24.77;35.40
6853;BME280;3465;42.144;24.722;2023-03-07T07:48:55;148645.97;;;22.87;37.78
6853;BME280;3465;42.144;24.722;2023-03-07T07:51:21;148792.78;;;23.45;37.06
6853;BME280;3465;42.144;24.722;2023-03-07T07:53:47;148930.81;;;24.00;37.54
6853;BME280;3465;42.144;24.722;2023-03-07T07:56:12;149095.44;;;24.65;35.74
6853;BME280;3465;42.144;24.722;2023-03-07T07:58:38;149098.00;;;24.66;36.01
6853;BME280;3465;42.144;24.722;2023-03-07T08:01:14;149214.59;;;25.12;35.17
6853;BME280;3465;42.144;24.722;2023-03-07T08:03:40;149290.66;;;25.43;34.60
6853;BME280;3465;42.144;24.722;2023-03-07T08:06:05;149378.16;;;25.77;33.71
6853;BME280;3465;42.144;24.722;2023-03-07T08:08:31;149398.44;;;25.85;33.20
6853;BME280;3465;42.144;24.722;2023-03-07T08:10:56;149350.22;;;25.66;33.80
6853;BME280;3465;42.144;24.722;2023-03-07T08:13:22;149366.72;;;25.73;33.72
6853;BME280;3465;42.144;24.722;2023-03-07T08:15:47;149089.13;;;24.63;34.64
6853;BME280;3465;42.144;24.722;2023-03-07T08:18:12;149175.34;;;24.97;34.05
6853;BME280;3465;42.144;24.722;2023-03-07T08:20:38;148942.22;;;24.05;35.88
6853;BME280;3465;42.144;24.722;2023-03-07T08:23:05;148972.63;;;24.17;36.05
6853;BME280;3465;42.144;24.722;2023-03-07T08:25:31;149144.91;;;24.85;35.07
6853;BME280;3465;42.144;24.722;2023-03-07T08:27:57;149253.88;;;25.28;34.34
6853;BME280;3465;42.144;24.722;2023-03-07T08:30:24;149118.31;;;24.74;35.41
6853;BME280;3465;42.144;24.722;2023-03-07T08:32:51;148923.22;;;23.97;36.87
6853;BME280;3465;42.144;24.722;2023-03-07T08:35:17;149231.06;;;25.19;34.88
6853;BME280;3465;42.144;24.722;2023-03-07T08:37:43;148757.38;;;23.31;37.34
6853;BME280;3465;42.144;24.722;2023-03-07T08:40:09;148929.53;;;23.99;37.58
6853;BME280;3465;42.144;24.722;2023-03-07T08:42:34;149269.09;;;25.34;35.81
6853;BME280;3465;42.144;24.722;2023-03-07T08:45:00;149508.78;;;26.29;34.42
6853;BME280;3465;42.144;24.722;2023-03-07T08:47:25;149343.91;;;25.64;34.66
6853;BME280;3465;42.144;24.722;2023-03-07T08:49:51;149498.66;;;26.25;34.27
6853;BME280;3465;42.144;24.722;2023-03-07T08:52:16;149572.22;;;26.54;33.47
6853;BME280;3465;42.144;24.722;2023-03-07T08:54:43;149683.91;;;26.98;33.38
6853;BME280;3465;42.144;24.722;2023-03-07T08:57:08;149582.34;;;26.58;32.61
6853;BME280;3465;42.144;24.722;2023-03-07T08:59:34;149723.25;;;27.14;32.84
6853;BME280;3465;42.144;24.722;2023-03-07T09:01:59;149369.28;;;25.74;34.23
6853;BME280;3465;42.144;24.722;2023-03-07T09:04:24;149498.66;;;26.25;34.44
6853;BME280;3465;42.144;24.722;2023-03-07T09:06:50;149469.47;;;26.13;32.83
6853;BME280;3465;42.144;24.722;2023-03-07T09:09:16;149710.56;;;27.09;32.35
6853;BME280;3465;42.144;24.722;2023-03-07T09:11:41;149744.81;;;27.22;31.88
6853;BME280;3465;42.144;24.722;2023-03-07T09:14:07;149876.88;;;27.74;30.80
6853;BME280;3465;42.144;24.722;2023-03-07T09:16:32;150076.38;;;28.53;30.23
6853;BME280;3465;42.144;24.722;2023-03-07T09:18:59;149972.13;;;28.12;30.10
6853;BME280;3465;42.144;24.722;2023-03-07T09:21:24;149761.34;;;27.29;30.79
6853;BME280;3465;42.144;24.722;2023-03-07T09:23:50;149883.22;;;27.77;30.41
6853;BME280;3465;42.144;24.722;2023-03-07T09:26:15;149692.78;;;27.02;31.05
6853;BME280;3465;42.144;24.722;2023-03-07T09:28:41;149640.78;;;26.81;31.28
6853;BME280;3465;42.144;24.722;2023-03-07T09:31:08;149643.28;;;26.82;31.54
6853;BME280;3465;42.144;24.722;2023-03-07T09:33:34;149413.66;;;25.91;32.50
6853;BME280;3465;42.144;24.722;2023-03-07T09:36:03;149371.78;;;25.75;33.06
6853;BME280;3465;42.144;24.722;2023-03-07T09:38:28;149430.13;;;25.98;32.79
6853;BME280;3465;42.144;24.722;2023-03-07T09:40:54;149713.09;;;27.10;31.66
6853;BME280;3465;42.144;24.722;2023-03-07T09:43:22;149791.84;;;27.41;30.95
6853;BME280;3465;42.144;24.722;2023-03-07T09:51:18;149710.56;;;27.09;29.60
6853;BME280;3465;42.144;24.722;2023-03-07T09:53:59;149788.03;;;27.39;29.93
6853;BME280;3465;42.144;24.722;2023-03-07T09:56:33;149995.03;;;28.21;28.84
6853;BME280;3465;42.144;24.722;2023-03-07T09:59:16;149812.16;;;27.49;30.05
6853;BME280;3465;42.144;24.722;2023-03-07T10:01:49;149748.59;;;27.24;30.05
6853;BME280;3465;42.144;24.722;2023-03-07T10:04:24;149781.66;;;27.37;29.88
6853;BME280;3465;42.144;24.722;2023-03-07T10:06:56;149928.97;;;27.95;28.99
6853;BME280;3465;42.144;24.722;2023-03-07T10:09:23;149850.19;;;27.64;29.14
6853;BME280;3465;42.144;24.722;2023-03-07T10:14:29;149728.31;;;27.16;29.46
6853;BME280;3465;42.144;24.722;2023-03-07T10:19:33;149720.69;;;27.13;29.57
6853;BME280;3465;42.144;24.722;2023-03-07T10:22:08;149291.94;;;25.43;32.04
6853;BME280;3465;42.144;24.722;2023-03-07T10:27:24;149298.28;;;25.46;32.13
6853;BME280;3465;42.144;24.722;2023-03-07T10:29:53;149309.66;;;25.50;32.85
6853;BME280;3465;42.144;24.722;2023-03-07T10:37:52;149614.09;;;26.70;29.95
6853;BME280;3465;42.144;24.722;2023-03-07T10:42:54;149768.97;;;27.32;28.75
6853;BME280;3465;42.144;24.722;2023-03-07T10:45:20;149545.56;;;26.43;29.39
6853;BME280;3465;42.144;24.722;2023-03-07T10:47:45;149261.47;;;25.31;30.91
6853;BME280;3465;42.144;24.722;2023-03-07T10:52:51;148924.47;;;23.97;32.21
6853;BME280;3465;42.144;24.722;2023-03-07T10:55:40;148837.09;;;23.63;32.94
6853;BME280;3465;42.144;24.722;2023-03-07T11:00:42;148848.47;;;23.67;34.21
6853;BME280;3465;42.144;24.722;2023-03-07T11:03:24;148799.09;;;23.48;34.21
6853;BME280;3465;42.144;24.722;2023-03-07T11:05:51;148643.44;;;22.86;35.48
6853;BME280;3465;42.144;24.722;2023-03-07T11:08:27;148519.41;;;22.37;35.32
6853;BME280;3465;42.144;24.722;2023-03-07T11:10:53;148449.91;;;22.09;34.99
6853;BME280;3465;42.144;24.722;2023-03-07T11:13:20;148376.59;;;21.80;34.21
6853;BME280;3465;42.144;24.722;2023-03-07T11:15:46;148398.03;;;21.89;35.49
6853;BME280;3465;42.144;24.722;2023-03-07T11:18:50;148315.88;;;21.56;36.68
6853;BME280;3465;42.144;24.722;2023-03-07T11:21:30;148207.22;;;21.13;38.43
6853;BME280;3465;42.144;24.722;2023-03-07T11:24:49;148323.47;;;21.59;38.55
6853;BME280;3465;42.144;24.722;2023-03-07T11:26:53;148680.13;;;23.01;36.47
6853;BME280;3465;42.144;24.722;2023-03-07T11:29:19;148667.47;;;22.96;35.47
6853;BME280;3465;42.144;24.722;2023-03-07T11:34:45;148538.44;;;22.44;35.34
6853;BME280;3465;42.144;24.722;2023-03-07T11:42:44;148627.00;;;22.80;36.14
6853;BME280;3465;42.144;24.722;2023-03-07T11:50:55;148456.22;;;22.12;35.56
6853;BME280;3465;42.144;24.722;2023-03-07T12:09:51;148358.81;;;21.73;38.42
6853;BME280;3465;42.144;24.722;2023-03-07T12:20:38;148671.28;;;22.97;35.19
6853;BME280;3465;42.144;24.722;2023-03-07T12:23:23;148577.66;;;22.60;36.24
6853;BME280;3465;42.144;24.722;2023-03-07T12:25:56;148616.84;;;22.76;35.92
6853;BME280;3465;42.144;24.722;2023-03-07T12:31:10;148142.75;;;20.87;39.30
6853;BME280;3465;42.144;24.722;2023-03-07T12:39:17;147805.63;;;19.53;42.93
6853;BME280;3465;42.144;24.722;2023-03-07T12:42:03;147632.78;;;18.85;41.47
6853;BME280;3465;42.144;24.722;2023-03-07T12:44:44;147568.47;;;18.59;42.12
6853;BME280;3465;42.144;24.722;2023-03-07T12:47:24;147623.94;;;18.81;42.58
6853;BME280;3465;42.144;24.722;2023-03-07T12:49:53;147635.28;;;18.86;42.05
6853;BME280;3465;42.144;24.722;2023-03-07T12:52:38;147552.06;;;18.52;40.95
6853;BME280;3465;42.144;24.722;2023-03-07T12:58:06;147630.22;;;18.84;43.73
6853;BME280;3465;42.144;24.722;2023-03-07T13:00:37;147670.56;;;19.00;43.02
6853;BME280;3465;42.144;24.722;2023-03-07T13:03:04;147661.78;;;18.96;43.00
6853;BME280;3465;42.144;24.722;2023-03-07T13:05:32;147645.38;;;18.90;43.73
6853;BME280;3465;42.144;24.722;2023-03-07T13:07:59;147612.59;;;18.77;44.69
6853;BME280;3465;42.144;24.722;2023-03-07T13:10:26;147644.09;;;18.89;44.06
6853;BME280;3465;42.144;24.722;2023-03-07T13:12:52;147520.56;;;18.40;44.36
6853;BME280;3465;42.144;24.722;2023-03-07T13:28:02;147652.94;;;18.93;43.37
6853;BME280;3465;42.144;24.722;2023-03-07T13:30:32;147842.22;;;19.68;42.64
6853;BME280;3465;42.144;24.722;2023-03-07T13:33:03;147911.63;;;19.96;41.57
6853;BME280;3465;42.144;24.722;2023-03-07T13:35:54;147676.91;;;19.02;42.22
6853;BME280;3465;42.144;24.722;2023-03-07T13:40:52;147676.91;;;19.02;42.72
6853;BME280;3465;42.144;24.722;2023-03-07T13:45:56;147671.84;;;19.00;43.06
6853;BME280;3465;42.144;24.722;2023-03-07T13:58:59;147607.53;;;18.75;44.36
6853;BME280;3465;42.144;24.722;2023-03-07T14:01:34;147599.97;;;18.72;44.21
6853;BME280;3465;42.144;24.722;2023-03-07T14:04:22;147592.41;;;18.69;44.66
6853;BME280;3465;42.144;24.722;2023-03-07T14:06:53;147678.19;;;19.03;44.42
6853;BME280;3465;42.144;24.722;2023-03-07T14:09:24;147731.13;;;19.24;43.61
6853;BME280;3465;42.144;24.722;2023-03-07T14:12:02;147741.22;;;19.28;42.81
6853;BME280;3465;42.144;24.722;2023-03-07T14:20:45;147622.66;;;18.81;42.63
6853;BME280;3465;42.144;24.722;2023-03-07T14:25:21;147554.56;;;18.53;43.67
6853;BME280;3465;42.144;24.722;2023-03-07T14:30:23;147452.41;;;18.13;45.14
6853;BME280;3465;42.144;24.722;2023-03-07T14:32:49;147453.69;;;18.13;46.13
6853;BME280;3465;42.144;24.722;2023-03-07T14:35:31;147420.91;;;18.00;46.07
6853;BME280;3465;42.144;24.722;2023-03-07T14:37:57;147438.56;;;18.07;45.97
6853;BME280;3465;42.144;24.722;2023-03-07T14:40:39;147367.97;;;17.79;46.56
6853;BME280;3465;42.144;24.722;2023-03-07T14:49:08;147317.59;;;17.59;47.16
6853;BME280;3465;42.144;24.722;2023-03-07T14:51:39;147277.25;;;17.43;48.39
6853;BME280;3465;42.144;24.722;2023-03-07T14:54:17;147349.09;;;17.72;47.46
6853;BME280;3465;42.144;24.722;2023-03-07T14:56:44;147347.81;;;17.71;47.67
6853;BME280;3465;42.144;24.722;2023-03-07T14:59:12;147394.47;;;17.90;47.99
6853;BME280;3465;42.144;24.722;2023-03-07T15:01:39;147360.44;;;17.76;48.09
6853;BME280;3465;42.144;24.722;2023-03-07T15:04:29;147390.69;;;17.88;48.44
6853;BME280;3465;42.144;24.722;2023-03-07T15:06:57;147375.59;;;17.82;48.26
6853;BME280;3465;42.144;24.722;2023-03-07T15:09:24;147374.31;;;17.82;48.49